createdAt,value
2022-10-22T00:00:55.437Z,3.88
2022-10-22T00:03:21.975Z,3.80
2022-10-22T00:05:48.516Z,4.35
2022-10-22T00:08:15.082Z,2.95
2022-10-22T00:10:41.652Z,3.85
2022-10-22T00:13:07.985Z,3.13
2022-10-22T00:15:34.949Z,3.72
2022-10-22T00:18:01.364Z,3.38
2022-10-22T00:20:27.835Z,3.05
2022-10-22T00:22:54.333Z,4.80
2022-10-22T00:25:21.000Z,3.42
2022-10-22T00:27:47.352Z,3.92
2022-10-22T00:30:14.037Z,4.20
2022-10-22T00:32:40.691Z,3.75
2022-10-22T00:35:07.445Z,3.63
2022-10-22T00:37:33.971Z,3.33
2022-10-22T00:40:00.281Z,3.45
2022-10-22T00:42:27.619Z,3.58
2022-10-22T00:45:02.904Z,4.05
2022-10-22T00:47:35.548Z,3.40
2022-10-22T00:50:05.122Z,3.72
2022-10-22T00:52:32.145Z,3.50
2022-10-22T00:54:59.565Z,3.65
2022-10-22T00:57:26.154Z,3.65
2022-10-22T00:59:52.957Z,3.85
2022-10-22T01:02:19.445Z,3.55
2022-10-22T01:04:45.934Z,3.20
2022-10-22T01:07:22.008Z,3.58
2022-10-22T01:10:03.217Z,3.38
2022-10-22T01:12:48.148Z,2.95
2022-10-22T01:15:37.464Z,2.80
2022-10-22T01:18:21.268Z,2.92
2022-10-22T01:20:54.534Z,2.65
2022-10-22T01:23:39.187Z,2.70
2022-10-22T01:28:54.181Z,2.88
2022-10-22T01:31:23.585Z,2.85
2022-10-22T01:33:53.298Z,2.78
2022-10-22T01:36:21.347Z,2.50
2022-10-22T01:38:49.872Z,3.25
2022-10-22T01:41:16.450Z,3.33
2022-10-22T01:43:42.774Z,2.20
2022-10-22T01:46:11.605Z,2.85
2022-10-22T01:48:45.982Z,2.45
2022-10-22T01:51:48.326Z,2.50
2022-10-22T01:54:20.790Z,2.65
2022-10-22T01:57:17.821Z,2.40
2022-10-22T01:59:57.951Z,2.88
2022-10-22T02:02:51.176Z,2.40
2022-10-22T02:05:40.078Z,2.97
2022-10-22T02:08:10.318Z,2.85
2022-10-22T02:10:42.105Z,2.50
2022-10-22T02:13:12.461Z,2.95
2022-10-22T02:15:40.967Z,2.33
2022-10-22T02:18:10.416Z,2.75
2022-10-22T02:20:41.725Z,2.53
2022-10-22T02:23:09.231Z,2.85
2022-10-22T02:25:39.919Z,2.97
2022-10-22T02:28:16.813Z,2.55
2022-10-22T02:30:47.047Z,2.40
2022-10-22T02:33:19.936Z,3.00
2022-10-22T02:35:47.697Z,2.60
2022-10-22T02:38:14.966Z,2.00
2022-10-22T02:40:41.646Z,2.22
2022-10-22T02:43:08.530Z,1.92
2022-10-22T02:45:35.650Z,2.15
2022-10-22T02:48:02.431Z,2.70
2022-10-22T02:50:29.381Z,2.60
2022-10-22T02:52:55.706Z,2.65
2022-10-22T02:55:22.179Z,2.88
2022-10-22T02:57:48.638Z,3.00
2022-10-22T03:00:15.433Z,2.53
2022-10-22T03:02:41.905Z,2.33
2022-10-22T03:05:08.822Z,2.42
2022-10-22T03:07:35.542Z,2.80
2022-10-22T03:10:02.067Z,2.72
2022-10-22T03:12:28.424Z,2.83
2022-10-22T03:14:54.795Z,2.50
2022-10-22T03:17:21.249Z,2.70
2022-10-22T03:19:47.645Z,2.95
2022-10-22T03:22:21.089Z,2.65
2022-10-22T03:24:52.165Z,2.88
2022-10-22T03:27:21.740Z,2.97
2022-10-22T03:29:51.498Z,3.28
2022-10-22T03:32:18.579Z,2.17
2022-10-22T03:34:44.942Z,3.08
2022-10-22T03:37:12.145Z,2.95
2022-10-22T03:39:38.861Z,4.13
2022-10-22T03:42:06.967Z,3.20
2022-10-22T03:44:35.537Z,3.33
2022-10-22T03:47:02.859Z,3.58
2022-10-22T03:49:29.455Z,3.30
2022-10-22T03:51:56.006Z,4.57
2022-10-22T03:54:22.431Z,4.50
2022-10-22T03:56:48.798Z,3.95
2022-10-22T03:59:15.454Z,4.60
2022-10-22T04:01:41.857Z,4.55
2022-10-22T04:04:08.942Z,3.85
2022-10-22T04:06:35.677Z,3.55
2022-10-22T04:09:02.092Z,3.75
2022-10-22T04:11:28.606Z,4.30
2022-10-22T04:13:54.945Z,3.40
2022-10-22T04:16:25.124Z,4.00
2022-10-22T04:18:54.168Z,4.40
2022-10-22T04:21:20.648Z,4.38
2022-10-22T04:23:49.459Z,3.80
2022-10-22T04:26:18.467Z,4.50
2022-10-22T04:28:46.728Z,4.13
2022-10-22T04:31:15.760Z,3.75
2022-10-22T04:33:43.422Z,2.85
2022-10-22T04:36:12.773Z,2.65
2022-10-22T04:38:39.973Z,1.30
2022-10-22T04:41:21.993Z,1.17
2022-10-22T04:43:49.194Z,1.10
2022-10-22T04:46:17.557Z,1.00
2022-10-22T04:48:45.736Z,1.25
2022-10-22T04:51:15.786Z,1.25
2022-10-22T04:53:43.572Z,1.00
2022-10-22T04:56:19.678Z,1.13
2022-10-22T04:58:48.483Z,1.13
2022-10-22T05:01:18.434Z,1.17
2022-10-22T05:03:46.192Z,1.10
2022-10-22T05:06:14.179Z,1.02
2022-10-22T05:08:40.979Z,0.98
2022-10-22T05:11:19.369Z,0.70
2022-10-22T05:13:46.456Z,1.10
2022-10-22T05:16:13.731Z,0.95
2022-10-22T05:18:42.478Z,0.95
2022-10-22T05:21:11.538Z,1.17
2022-10-22T05:23:38.605Z,1.00
2022-10-22T05:26:07.132Z,0.95
2022-10-22T05:28:34.332Z,0.80
2022-10-22T05:31:02.047Z,0.70
2022-10-22T05:33:29.798Z,0.90
2022-10-22T05:35:56.933Z,0.75
2022-10-22T05:38:24.082Z,0.40
2022-10-22T05:41:08.632Z,0.75
2022-10-22T05:43:36.273Z,0.47
2022-10-22T05:46:21.992Z,0.98
2022-10-22T05:48:53.516Z,0.50
2022-10-22T05:51:21.590Z,0.70
2022-10-22T05:53:52.595Z,0.57
2022-10-22T05:56:19.040Z,0.50
2022-10-22T05:58:45.589Z,0.30
2022-10-22T06:01:23.942Z,0.50
2022-10-22T06:03:53.794Z,0.30
2022-10-22T06:06:27.787Z,0.80
2022-10-22T06:08:56.206Z,0.40
2022-10-22T06:11:23.730Z,0.40
2022-10-22T06:13:51.517Z,0.30
2022-10-22T06:16:18.586Z,0.35
2022-10-22T06:18:45.390Z,0.40
2022-10-22T06:21:15.272Z,1.00
2022-10-22T06:23:43.132Z,0.43
2022-10-22T06:26:10.772Z,0.45
2022-10-22T06:28:38.037Z,0.47
2022-10-22T06:31:05.233Z,0.68
2022-10-22T06:33:33.686Z,0.52
2022-10-22T06:36:15.066Z,0.52
2022-10-22T06:38:42.454Z,0.77
2022-10-22T06:41:14.016Z,0.47
2022-10-22T06:43:45.677Z,0.47
2022-10-22T06:46:14.917Z,0.65
2022-10-22T06:48:48.980Z,0.50
2022-10-22T06:51:15.371Z,0.65
2022-10-22T06:53:42.173Z,0.77
2022-10-22T06:56:11.346Z,0.40
2022-10-22T06:58:38.283Z,0.17
2022-10-22T07:01:11.150Z,0.30
2022-10-22T07:03:39.244Z,0.40
2022-10-22T07:06:10.183Z,0.50
2022-10-22T07:08:38.106Z,0.40
2022-10-22T07:11:18.949Z,0.57
2022-10-22T07:13:46.360Z,0.17
2022-10-22T07:16:14.126Z,0.47
2022-10-22T07:18:41.757Z,0.30
2022-10-22T07:21:09.303Z,0.20
2022-10-22T07:23:35.966Z,0.28
2022-10-22T07:26:03.005Z,0.20
2022-10-22T07:28:30.366Z,0.40
2022-10-22T07:30:56.742Z,0.10
2022-10-22T07:33:23.189Z,0.50
2022-10-22T07:35:49.562Z,0.40
2022-10-22T07:38:16.218Z,0.50
2022-10-22T07:40:42.690Z,0.30
2022-10-22T07:43:09.115Z,0.40
2022-10-22T07:45:35.634Z,0.32
2022-10-22T07:48:02.049Z,0.35
2022-10-22T07:50:28.631Z,0.40
2022-10-22T07:52:57.446Z,0.32
2022-10-22T07:55:25.099Z,0.75
2022-10-22T07:57:51.556Z,0.57
2022-10-22T08:00:20.495Z,0.45
2022-10-22T08:02:49.571Z,0.50
2022-10-22T08:05:15.970Z,0.32
2022-10-22T08:07:43.249Z,0.68
2022-10-22T08:10:11.503Z,0.73
2022-10-22T08:12:38.653Z,0.60
2022-10-22T08:15:06.151Z,0.60
2022-10-22T08:17:32.481Z,0.50
2022-10-22T08:19:59.153Z,0.60
2022-10-22T08:22:25.976Z,0.88
2022-10-22T08:24:52.462Z,0.80
2022-10-22T08:27:19.194Z,0.85
2022-10-22T08:29:45.949Z,1.00
2022-10-22T08:32:12.352Z,0.70
2022-10-22T08:34:39.119Z,1.15
2022-10-22T08:37:05.445Z,0.90
2022-10-22T08:39:31.885Z,0.93
2022-10-22T08:42:33.485Z,0.80
2022-10-22T08:45:06.053Z,0.68
2022-10-22T08:47:49.761Z,1.10
2022-10-22T08:50:23.176Z,0.93
2022-10-22T08:52:59.555Z,0.70
2022-10-22T08:55:26.392Z,0.63
2022-10-22T08:57:55.771Z,1.25
2022-10-22T09:00:37.555Z,0.70
2022-10-22T09:03:09.824Z,0.98
2022-10-22T09:05:44.198Z,1.10
2022-10-22T09:08:13.041Z,0.63
2022-10-22T09:10:45.987Z,1.17
2022-10-22T09:13:16.091Z,0.85
2022-10-22T09:15:44.993Z,1.00
2022-10-22T09:18:41.082Z,1.27
2022-10-22T09:21:26.805Z,0.80
2022-10-22T09:24:05.959Z,0.93
2022-10-22T09:26:37.125Z,1.00
2022-10-22T09:29:04.620Z,1.10
2022-10-22T09:31:33.361Z,0.70
2022-10-22T09:34:00.321Z,1.08
2022-10-22T09:36:29.212Z,1.02
2022-10-22T09:38:56.098Z,1.08
2022-10-22T09:41:26.255Z,1.00
2022-10-22T09:43:52.769Z,0.90
2022-10-22T09:46:22.080Z,1.27
2022-10-22T09:48:53.837Z,0.77
2022-10-22T09:51:21.773Z,0.68
2022-10-22T09:53:57.000Z,0.90
2022-10-22T09:56:38.940Z,1.10
2022-10-22T09:59:06.786Z,1.45
2022-10-22T10:01:36.903Z,1.13
2022-10-22T10:04:09.857Z,1.08
2022-10-22T10:06:38.744Z,1.08
2022-10-22T10:09:21.458Z,1.10
2022-10-22T10:12:05.284Z,1.10
2022-10-22T10:14:39.684Z,1.42
2022-10-22T10:17:17.896Z,1.00
2022-10-22T10:20:03.708Z,0.98
2022-10-22T10:22:48.518Z,1.08
2022-10-22T10:25:28.270Z,1.23
2022-10-22T10:28:11.430Z,1.13
2022-10-22T10:30:51.653Z,1.40
2022-10-22T10:33:32.091Z,1.20
2022-10-22T10:36:08.295Z,1.10
2022-10-22T10:38:46.791Z,1.00
2022-10-22T10:41:22.776Z,1.02
2022-10-22T10:43:52.081Z,1.08
2022-10-22T10:46:34.796Z,1.23
2022-10-22T10:49:10.979Z,1.37
2022-10-22T10:51:52.961Z,1.75
2022-10-22T10:54:44.125Z,0.90
2022-10-22T10:57:34.396Z,1.35
2022-10-22T11:00:11.338Z,1.08
2022-10-22T11:02:43.684Z,1.08
2022-10-22T11:05:30.632Z,1.15
2022-10-22T11:08:21.321Z,1.08
2022-10-22T11:11:02.698Z,1.05
2022-10-22T11:13:45.651Z,1.10
2022-10-22T11:16:28.638Z,1.25
2022-10-22T11:19:15.493Z,1.63
2022-10-22T11:22:03.578Z,1.08
2022-10-22T11:24:45.223Z,1.02
2022-10-22T11:27:22.010Z,0.82
2022-10-22T11:30:02.000Z,1.20
2022-10-22T11:32:29.892Z,0.77
2022-10-22T11:35:01.042Z,1.70
2022-10-22T11:37:32.595Z,1.13
2022-10-22T11:40:05.969Z,0.95
2022-10-22T11:42:34.369Z,0.80
2022-10-22T11:45:26.216Z,1.42
2022-10-22T11:47:52.528Z,0.70
2022-10-22T11:50:24.834Z,0.73
2022-10-22T11:53:02.004Z,1.13
2022-10-22T11:55:40.814Z,0.90
2022-10-22T11:58:27.084Z,0.80
2022-10-22T12:01:01.782Z,1.00
2022-10-22T12:03:30.871Z,1.02
2022-10-22T12:06:06.750Z,1.05
2022-10-22T12:08:33.914Z,0.90
2022-10-22T12:11:03.819Z,0.73
2022-10-22T12:13:33.974Z,0.70
2022-10-22T12:16:03.956Z,0.77
2022-10-22T12:18:41.276Z,0.90
2022-10-22T12:21:13.188Z,1.10
2022-10-22T12:23:39.906Z,1.10
2022-10-22T12:26:06.637Z,0.88
2022-10-22T12:28:40.334Z,0.68
2022-10-22T12:31:14.833Z,0.98
2022-10-22T12:33:41.521Z,0.93
2022-10-22T12:36:15.739Z,0.90
2022-10-22T12:38:45.981Z,0.82
2022-10-22T12:41:13.125Z,0.82
2022-10-22T12:43:39.520Z,0.70
2022-10-22T12:46:12.853Z,0.93
2022-10-22T12:48:42.978Z,0.90
2022-10-22T12:51:16.229Z,0.98
2022-10-22T12:53:53.449Z,0.75
2022-10-22T12:56:26.545Z,1.08
2022-10-22T12:58:58.862Z,0.70
2022-10-22T13:01:27.805Z,0.70
2022-10-22T13:04:21.223Z,0.80
2022-10-22T13:07:04.390Z,1.20
2022-10-22T13:09:55.311Z,0.93
2022-10-22T13:12:26.613Z,0.73
2022-10-22T13:14:53.127Z,0.93
2022-10-22T13:17:37.121Z,0.82
2022-10-22T13:20:15.000Z,0.90
2022-10-22T13:22:55.214Z,0.98
2022-10-22T13:25:33.572Z,1.35
2022-10-22T13:28:19.536Z,0.88
2022-10-22T13:31:00.089Z,0.68
2022-10-22T13:33:34.526Z,1.08
2022-10-22T13:36:01.339Z,0.88
2022-10-22T13:38:28.376Z,0.77
2022-10-22T13:40:56.101Z,0.70
2022-10-22T13:43:23.368Z,0.80
2022-10-22T13:45:55.501Z,0.82
2022-10-22T13:48:24.168Z,1.38
2022-10-22T13:50:51.440Z,0.88
2022-10-22T13:53:26.652Z,0.63
2022-10-22T13:55:53.234Z,0.57
2022-10-22T13:58:22.205Z,0.77
2022-10-22T14:00:57.942Z,1.25
2022-10-22T14:03:32.330Z,0.75
2022-10-22T14:05:59.147Z,0.60
2022-10-22T14:08:27.784Z,0.88
2022-10-22T14:10:54.715Z,0.63
2022-10-22T14:13:21.648Z,0.35
2022-10-22T14:15:50.308Z,0.60
2022-10-22T14:18:21.935Z,0.75
2022-10-22T14:20:48.377Z,0.70
2022-10-22T14:23:19.634Z,1.10
2022-10-22T14:25:46.086Z,0.90
2022-10-22T14:28:12.600Z,0.75
2022-10-22T14:30:40.162Z,0.80
2022-10-22T14:33:31.382Z,1.00
2022-10-22T14:36:00.286Z,0.60
2022-10-22T14:38:27.024Z,0.80
2022-10-22T14:40:54.179Z,0.70
2022-10-22T14:43:26.680Z,0.73
2022-10-22T14:45:53.468Z,0.82
2022-10-22T14:50:51.616Z,0.50
2022-10-22T14:53:18.138Z,1.08
2022-10-22T14:55:45.642Z,0.50
2022-10-22T14:58:12.015Z,0.60
2022-10-22T15:00:41.542Z,0.50
2022-10-22T15:03:08.451Z,0.63
2022-10-22T15:05:34.906Z,0.82
2022-10-22T15:08:01.400Z,0.90
2022-10-22T15:10:28.081Z,0.60
2022-10-22T15:12:54.535Z,1.15
2022-10-22T15:18:04.955Z,0.40
2022-10-22T15:20:31.272Z,0.68
2022-10-22T15:22:57.685Z,0.95
2022-10-22T15:25:24.080Z,0.55
2022-10-22T15:27:52.498Z,0.60
2022-10-22T15:30:20.009Z,1.15
2022-10-22T15:32:46.589Z,0.75
2022-10-22T15:35:13.069Z,0.90
2022-10-22T15:37:39.627Z,0.50
2022-10-22T15:40:06.506Z,0.80
2022-10-22T15:42:32.949Z,1.33
2022-10-22T15:44:59.653Z,0.57
2022-10-22T15:47:26.594Z,0.68
2022-10-22T15:49:53.317Z,1.05
2022-10-22T15:52:19.854Z,0.47
2022-10-22T15:54:46.193Z,0.75
2022-10-22T15:57:12.666Z,0.90
2022-10-22T15:59:39.165Z,1.25
2022-10-22T16:02:05.553Z,0.65
2022-10-22T16:04:31.952Z,0.70
2022-10-22T16:06:59.657Z,0.85
2022-10-22T16:09:27.416Z,1.10
2022-10-22T16:11:55.117Z,1.13
2022-10-22T16:14:22.628Z,1.30
2022-10-22T16:16:52.629Z,0.93
2022-10-22T16:19:20.968Z,1.67
2022-10-22T16:21:52.533Z,2.25
2022-10-22T16:24:20.001Z,1.38
2022-10-22T16:26:46.948Z,1.77
2022-10-22T16:29:13.593Z,1.10
2022-10-22T16:31:41.402Z,1.65
2022-10-22T16:34:07.764Z,1.33
2022-10-22T16:36:34.453Z,1.55
2022-10-22T16:39:01.240Z,1.77
2022-10-22T16:41:27.998Z,1.25
2022-10-22T16:43:55.263Z,1.17
2022-10-22T16:46:22.583Z,1.30
2022-10-22T16:48:53.112Z,2.40
2022-10-22T16:51:22.725Z,2.00
2022-10-22T16:53:51.364Z,2.33
2022-10-22T16:56:18.350Z,1.75
2022-10-22T16:58:56.382Z,1.58
2022-10-22T17:01:25.099Z,4.30
2022-10-22T17:03:52.143Z,2.60
2022-10-22T17:06:18.640Z,2.53
2022-10-22T17:08:45.365Z,1.85
2022-10-22T17:11:13.989Z,1.73
2022-10-22T17:13:41.445Z,2.00
2022-10-22T17:16:10.494Z,2.28
2022-10-22T17:18:39.003Z,2.60
2022-10-22T17:21:06.771Z,3.15
2022-10-22T17:23:33.179Z,3.58
2022-10-22T17:26:08.269Z,3.28
2022-10-22T17:28:36.193Z,3.00
2022-10-22T17:31:16.605Z,2.65
2022-10-22T17:33:43.766Z,2.55
2022-10-22T17:36:11.031Z,4.38
2022-10-22T17:38:38.260Z,4.28
2022-10-22T17:41:07.004Z,2.40
2022-10-22T17:43:36.259Z,4.85
2022-10-22T17:46:07.614Z,2.65
2022-10-22T17:48:36.664Z,3.00
2022-10-22T17:51:07.410Z,5.35
2022-10-22T17:53:33.890Z,7.30
2022-10-22T17:56:04.681Z,5.57
2022-10-22T17:58:31.146Z,11.85
2022-10-22T18:00:58.680Z,11.35
2022-10-22T18:03:26.380Z,14.50
2022-10-22T18:05:52.903Z,8.98
2022-10-22T18:08:19.391Z,10.07
2022-10-22T18:10:45.907Z,8.45
2022-10-22T18:13:13.303Z,11.02
2022-10-22T18:15:40.076Z,9.73
2022-10-22T18:18:06.627Z,13.45
2022-10-22T18:20:33.567Z,10.57
2022-10-22T18:23:00.001Z,5.65
2022-10-22T18:25:26.454Z,6.13
2022-10-22T18:27:53.225Z,4.85
2022-10-22T18:30:19.925Z,7.53
2022-10-22T18:32:46.273Z,6.28
2022-10-22T18:35:12.763Z,6.55
2022-10-22T18:37:39.220Z,6.72
2022-10-22T18:40:06.411Z,6.38
2022-10-22T18:42:37.771Z,6.68
2022-10-22T18:45:06.080Z,8.40
2022-10-22T18:47:32.603Z,8.82
2022-10-22T18:49:58.916Z,11.70
2022-10-22T18:52:25.270Z,15.15
2022-10-22T18:54:51.736Z,8.65
2022-10-22T18:57:18.151Z,10.05
2022-10-22T18:59:44.609Z,12.55
2022-10-22T19:02:10.996Z,9.73
2022-10-22T19:04:37.375Z,7.47
2022-10-22T19:07:05.022Z,7.43
2022-10-22T19:09:31.729Z,7.05
2022-10-22T19:11:58.079Z,7.32
2022-10-22T19:14:24.510Z,6.85
2022-10-22T19:16:51.049Z,5.47
2022-10-22T19:19:21.659Z,6.25
2022-10-22T19:21:48.679Z,6.43
2022-10-22T19:24:17.126Z,5.60
2022-10-22T19:26:44.239Z,6.05
2022-10-22T19:29:11.086Z,6.40
2022-10-22T19:31:37.793Z,5.93
2022-10-22T19:34:04.602Z,4.85
2022-10-22T19:36:32.423Z,4.95
2022-10-22T19:38:59.512Z,4.70
2022-10-22T19:41:28.464Z,4.93
2022-10-22T19:43:56.881Z,5.88
2022-10-22T19:46:24.690Z,5.38
2022-10-22T19:51:41.923Z,4.38
2022-10-22T19:54:12.041Z,4.35
2022-10-22T19:56:39.028Z,4.68
2022-10-22T19:59:05.922Z,4.40
2022-10-22T20:01:32.422Z,5.00
2022-10-22T20:03:59.106Z,4.72
2022-10-22T20:06:25.564Z,4.72
2022-10-22T20:08:55.227Z,5.13
2022-10-22T20:11:25.431Z,4.43
2022-10-22T20:13:52.619Z,5.18
2022-10-22T20:16:22.218Z,4.45
2022-10-22T20:18:49.806Z,4.38
2022-10-22T20:21:20.283Z,3.40
2022-10-22T20:23:47.810Z,3.78
2022-10-22T20:26:14.526Z,4.20
2022-10-22T20:28:41.040Z,4.03
2022-10-22T20:31:12.564Z,4.35
2022-10-22T20:33:39.529Z,3.60
2022-10-22T20:36:09.402Z,3.35
2022-10-22T20:41:07.113Z,4.35
2022-10-22T20:43:34.540Z,3.28
2022-10-22T20:46:01.454Z,3.85
2022-10-22T20:48:28.689Z,3.50
2022-10-22T20:50:56.103Z,4.20
2022-10-22T20:53:22.970Z,4.07
2022-10-22T20:55:51.393Z,4.00
2022-10-22T20:58:18.012Z,4.28
2022-10-22T21:00:45.956Z,4.03
2022-10-22T21:03:14.078Z,5.72
2022-10-22T21:05:40.804Z,4.57
2022-10-22T21:08:07.323Z,5.05
2022-10-22T21:10:34.766Z,4.38
2022-10-22T21:13:01.115Z,5.47
2022-10-22T21:15:28.124Z,4.03
2022-10-22T21:17:54.937Z,3.60
2022-10-22T21:20:24.580Z,4.32
2022-10-22T21:22:51.373Z,3.47
2022-10-22T21:25:18.215Z,4.72
2022-10-22T21:27:44.779Z,6.22
2022-10-22T21:30:12.319Z,7.05
2022-10-22T21:32:38.908Z,6.03
2022-10-22T21:35:05.746Z,5.00
2022-10-22T21:37:32.228Z,4.75
2022-10-22T21:39:58.703Z,5.20
2022-10-22T21:42:25.122Z,4.75
2022-10-22T21:44:51.573Z,4.15
2022-10-22T21:47:17.939Z,5.65
2022-10-22T21:49:44.499Z,6.43
2022-10-22T21:52:11.312Z,5.53
2022-10-22T21:54:37.753Z,7.55
2022-10-22T21:57:04.412Z,6.85
2022-10-22T21:59:31.115Z,13.52
2022-10-22T22:02:03.392Z,6.38
2022-10-22T22:04:32.099Z,9.30
2022-10-22T22:06:58.748Z,8.73
2022-10-22T22:09:25.201Z,7.03
2022-10-22T22:11:51.878Z,7.80
2022-10-22T22:14:18.261Z,5.90
2022-10-22T22:16:44.724Z,6.65
2022-10-22T22:19:12.089Z,6.50
2022-10-22T22:21:40.804Z,6.57
2022-10-22T22:24:08.992Z,6.97
2022-10-22T22:26:36.429Z,6.78
2022-10-22T22:29:03.106Z,6.07
2022-10-22T22:31:32.830Z,6.47
2022-10-22T22:34:05.983Z,7.25
2022-10-22T22:36:38.471Z,9.23
2022-10-22T22:39:07.496Z,10.48
2022-10-22T22:41:34.269Z,8.13
2022-10-22T22:44:00.742Z,7.30
2022-10-22T22:46:27.179Z,7.43
2022-10-22T22:48:53.767Z,6.45
2022-10-22T22:51:20.518Z,6.60
2022-10-22T22:53:47.035Z,6.32
2022-10-22T22:56:16.816Z,6.50
2022-10-22T22:58:44.019Z,6.60
2022-10-22T23:01:27.430Z,5.38
2022-10-22T23:03:58.358Z,5.80
2022-10-22T23:06:27.045Z,7.50
2022-10-22T23:08:54.452Z,6.97
2022-10-22T23:11:22.456Z,5.68
2022-10-22T23:13:59.175Z,5.55
2022-10-22T23:16:28.673Z,5.32
2022-10-22T23:18:55.664Z,5.00
2022-10-22T23:21:34.435Z,5.28
2022-10-22T23:24:04.794Z,4.90
2022-10-22T23:26:34.748Z,5.22
2022-10-22T23:29:02.935Z,5.13
2022-10-22T23:31:29.419Z,4.63
2022-10-22T23:33:55.854Z,5.28
2022-10-22T23:36:22.268Z,4.78
2022-10-22T23:38:48.613Z,3.85
2022-10-22T23:41:15.016Z,4.72
2022-10-22T23:43:41.428Z,3.92
2022-10-22T23:46:10.822Z,4.22
2022-10-22T23:48:38.238Z,4.25
2022-10-22T23:51:10.051Z,4.40
2022-10-22T23:53:36.445Z,4.72
2022-10-22T23:56:08.703Z,4.60
2022-10-22T23:58:35.558Z,4.70
